Time;durP1;ratioP1;P1;durP2;ratioP2;P2;SDS_P1;SDS_P2;PMS_P1;PMS_P2;Temp;Humidity;BMP_temperature;BMP_pressure;BME280_temperature;BME280_humidity;BME280_pressure;Samples;Min_cycle;Max_cycle;Signal;HPM_P1;HPM_P2
2022/12/09 00:01:49;;;;;;;21.70;14.70;;;-1.70;99.90;;;-3.32;100.00;96340.94;5114141;28;20400;-76
2022/12/09 00:04:16;;;;;;;23.65;16.05;;;-1.70;99.90;;;-3.28;100.00;96333.59;5113105;28;20400;-77
2022/12/09 00:06:42;;;;;;;24.03;15.63;;;-1.70;99.90;;;-3.33;100.00;96329.00;5112992;28;20434;-78
2022/12/09 00:09:14;;;;;;;24.25;14.77;;;-1.70;99.90;;;-3.37;100.00;96330.34;5113648;28;20444;-77
2022/12/09 00:11:40;;;;;;;23.13;15.70;;;-1.80;99.90;;;-3.37;100.00;96324.38;5113658;28;20491;-77
2022/12/09 00:14:06;;;;;;;27.40;16.33;;;-1.80;99.90;;;-3.37;100.00;96330.34;5112982;28;20395;-77
2022/12/09 00:16:33;;;;;;;24.25;16.17;;;-1.80;99.90;;;-3.34;100.00;96326.59;5113651;28;20400;-77
2022/12/09 00:18:59;;;;;;;24.83;15.95;;;-1.70;99.90;;;-3.37;100.00;96317.41;5113702;28;20416;-77
2022/12/09 00:21:28;;;;;;;24.67;16.10;;;-1.80;99.90;;;-3.38;100.00;96320.22;5113750;28;20392;-77
2022/12/09 00:23:56;;;;;;;25.23;16.08;;;-1.80;99.90;;;-3.40;100.00;96317.81;5113128;28;20392;-77
2022/12/09 00:26:25;;;;;;;26.27;15.65;;;-1.80;99.90;;;-3.32;100.00;96314.28;5113814;28;20424;-78
2022/12/09 00:28:52;;;;;;;21.70;14.02;;;-1.80;99.90;;;-3.33;100.00;96310.88;5113759;28;20742;-78
2022/12/09 00:31:23;;;;;;;25.58;16.00;;;-1.80;99.90;;;-3.33;100.00;96316.06;5113577;28;20901;-75
2022/12/09 00:33:51;;;;;;;23.07;15.80;;;-1.80;99.90;;;-3.33;100.00;96310.09;5112679;28;20897;-77
2022/12/09 00:36:20;;;;;;;21.33;14.48;;;-1.80;99.90;;;-3.34;100.00;96308.50;5112812;28;20453;-77
2022/12/09 00:38:47;;;;;;;23.77;14.73;;;-1.80;99.90;;;-3.34;100.00;96308.50;5112770;28;20862;-77
2022/12/09 00:41:14;;;;;;;25.33;15.85;;;-1.80;99.90;;;-3.37;100.00;96307.06;5112629;28;20896;-78
2022/12/09 00:43:40;;;;;;;22.60;14.27;;;-1.80;99.90;;;-3.36;100.00;96307.88;5111886;28;20415;-78
2022/12/09 00:46:06;;;;;;;23.60;14.38;;;-1.80;99.90;;;-3.31;100.00;96308.13;5113389;28;20400;-77
2022/12/09 00:48:33;;;;;;;22.75;14.90;;;-1.80;99.90;;;-3.40;100.00;96304.06;5111901;28;20895;-77
2022/12/09 00:51:00;;;;;;;21.20;14.48;;;-1.80;99.90;;;-3.46;100.00;96302.25;5112959;28;20445;-76
2022/12/09 00:53:26;;;;;;;22.20;14.40;;;-1.80;99.90;;;-3.48;100.00;96297.28;5112245;28;20408;-77
2022/12/09 00:55:52;;;;;;;27.95;15.98;;;-1.90;99.90;;;-3.43;100.00;96299.28;5113108;28;20433;-78
2022/12/09 00:58:18;;;;;;;22.10;14.97;;;-1.90;99.90;;;-3.49;100.00;96306.00;5112586;28;20413;-78
2022/12/09 01:00:44;;;;;;;21.55;14.90;;;-1.90;99.90;;;-3.53;100.00;96303.00;5114391;28;20427;-79
2022/12/09 01:03:12;;;;;;;28.40;17.30;;;-1.90;99.90;;;-3.51;100.00;96307.97;5113848;28;20464;-78
2022/12/09 01:05:39;;;;;;;24.03;15.93;;;-1.90;99.90;;;-3.51;100.00;96303.59;5112384;28;20408;-78
2022/12/09 01:08:06;;;;;;;27.83;17.23;;;-1.90;99.90;;;-3.45;100.00;96311.59;5112468;28;20570;-78
2022/12/09 01:10:33;;;;;;;26.30;16.35;;;-1.90;99.90;;;-3.51;100.00;96307.97;5112969;28;20464;-78
2022/12/09 01:12:59;;;;;;;24.65;16.27;;;-1.90;99.90;;;-3.49;100.00;96308.59;5111654;28;20495;-77
2022/12/09 01:15:24;;;;;;;24.13;15.52;;;-1.90;99.90;;;-3.53;100.00;96312.53;5112814;28;20550;-78
2022/12/09 01:17:50;;;;;;;24.63;15.93;;;-1.90;99.90;;;-3.55;100.00;96310.16;5112701;28;20893;-78
2022/12/09 01:20:17;;;;;;;23.02;15.10;;;-1.90;99.90;;;-3.49;100.00;96313.78;5112577;28;20460;-79
2022/12/09 01:22:42;;;;;;;24.13;14.75;;;-1.90;99.90;;;-3.45;100.00;96306.41;5112111;28;20461;-78
2022/12/09 01:25:10;;;;;;;21.13;13.93;;;-1.90;99.90;;;-3.54;100.00;96305.78;5112314;28;20467;-77
2022/12/09 01:27:36;;;;;;;22.35;14.35;;;-1.90;99.90;;;-3.53;100.00;96307.38;5111136;28;20798;-78
2022/12/09 01:30:02;;;;;;;21.98;14.45;;;-2.00;99.90;;;-3.56;100.00;96302.59;5112370;28;20481;-78
2022/12/09 01:32:28;;;;;;;21.25;13.77;;;-2.00;99.90;;;-3.60;100.00;96302.16;5112348;28;20768;-78
2022/12/09 01:34:53;;;;;;;24.90;14.13;;;-2.00;99.90;;;-3.58;100.00;96295.00;5111710;28;20403;-78
2022/12/09 01:37:19;;;;;;;24.85;14.68;;;-1.90;99.90;;;-3.57;100.00;96298.41;5112252;28;20400;-78
2022/12/09 01:39:45;;;;;;;19.67;13.23;;;-2.00;99.90;;;-3.63;100.00;96301.75;5112975;28;20482;-78
2022/12/09 01:42:19;;;;;;;23.63;13.57;;;-2.00;99.90;;;-3.64;100.00;96292.38;5112224;28;20453;-78
2022/12/09 01:45:42;;;;;;;22.15;14.63;;;-2.00;99.90;;;-3.63;100.00;96289.63;5111341;28;20742;-80
2022/12/09 01:48:11;;;;;;;25.40;14.68;;;-2.00;99.90;;;-3.63;100.00;96294.00;5096052;28;20409;-78
2022/12/09 01:50:42;;;;;;;22.95;14.90;;;-2.00;99.90;;;-3.66;100.00;96289.19;5112013;28;20424;-76
2022/12/09 01:53:08;;;;;;;23.00;15.77;;;-2.00;99.90;;;-3.68;100.00;96284.19;5111284;28;20858;-76
2022/12/09 01:55:35;;;;;;;23.83;15.88;;;-2.10;99.90;;;-3.59;100.00;96283.06;5112083;28;20765;-77
2022/12/09 01:58:04;;;;;;;21.67;14.57;;;-2.00;99.90;;;-3.47;100.00;96287.72;5111796;28;20401;-78
2022/12/09 02:00:30;;;;;;;25.73;17.00;;;-1.90;99.90;;;-3.41;100.00;96279.19;5111755;28;20465;-77
2022/12/09 02:02:57;;;;;;;26.67;16.02;;;-1.90;99.90;;;-3.40;100.00;96273.84;5111032;28;20754;-78
2022/12/09 02:05:23;;;;;;;21.58;14.20;;;-1.90;99.90;;;-3.41;100.00;96269.66;5111871;28;20396;-77
2022/12/09 02:07:49;;;;;;;20.13;13.60;;;-1.90;99.90;;;-3.47;100.00;96261.84;5111663;28;20408;-77
2022/12/09 02:10:16;;;;;;;20.83;13.60;;;-1.90;99.90;;;-3.52;100.00;96265.00;5111599;28;20492;-77
2022/12/09 02:12:55;;;;;;;17.65;12.27;;;-1.90;99.90;;;-3.58;100.00;96250.25;5114421;28;20392;-79
2022/12/09 02:15:29;;;;;;;20.90;13.13;;;-2.00;99.90;;;-3.59;100.00;96244.28;5120282;28;20412;-78
2022/12/09 02:18:02;;;;;;;18.50;12.48;;;-2.00;99.90;;;-3.58;100.00;96239.91;5118382;28;20392;-81
2022/12/09 02:20:36;;;;;;;26.13;14.13;;;-2.10;99.90;;;-3.66;100.00;96240.84;5111483;28;20416;-78
2022/12/09 02:23:08;;;;;;;16.73;11.63;;;-2.10;99.90;;;-3.76;100.00;96240.38;5110751;28;20397;-77
2022/12/09 02:25:42;;;;;;;15.73;10.40;;;-2.20;99.90;;;-3.78;100.00;96244.16;5111497;28;20893;-77
2022/12/09 02:28:46;;;;;;;14.05;9.35;;;-2.20;99.90;;;-3.77;100.00;96245.75;5111217;28;20399;-77
2022/12/09 02:31:33;;;;;;;14.93;8.63;;;-2.20;99.90;;;-3.81;100.00;96245.34;5111235;28;20405;-78
2022/12/09 02:34:12;;;;;;;14.98;9.10;;;-2.20;99.90;;;-3.76;100.00;96252.53;5108943;28;20899;-78
2022/12/09 02:36:53;;;;;;;11.40;8.23;;;-2.10;99.90;;;-3.80;100.00;96253.88;5110984;28;20423;-78
2022/12/09 02:39:28;;;;;;;13.30;8.65;;;-2.20;99.90;;;-3.74;100.00;96253.94;5110787;28;20440;-78
2022/12/09 02:41:57;;;;;;;14.77;8.82;;;-2.20;99.90;;;-3.74;100.00;96250.53;5110523;28;20389;-78
2022/12/09 02:44:24;;;;;;;12.40;8.48;;;-2.20;99.90;;;-3.81;100.00;96241.94;5110157;28;20449;-78
2022/12/09 02:46:52;;;;;;;15.27;10.10;;;-2.20;99.90;;;-3.77;100.00;96246.56;5110785;28;20412;-77
2022/12/09 02:49:22;;;;;;;13.82;10.10;;;-2.20;99.90;;;-3.84;100.00;96244.94;5110970;28;20447;-78
2022/12/09 02:51:49;;;;;;;15.32;9.70;;;-2.20;99.90;;;-3.88;100.00;96234.16;5110758;28;20874;-78
2022/12/09 02:54:17;;;;;;;12.73;9.32;;;-2.30;99.90;;;-3.88;100.00;96225.59;5110080;28;20389;-77
2022/12/09 02:56:50;;;;;;;14.55;10.45;;;-2.20;99.90;;;-3.85;100.00;96217.47;5110620;28;20397;-77
2022/12/09 02:59:16;;;;;;;15.90;10.95;;;-2.20;99.90;;;-3.80;100.00;96218.50;5110864;28;20412;-77
2022/12/09 03:01:49;;;;;;;16.25;11.45;;;-2.20;99.90;;;-3.79;100.00;96217.50;5110717;28;20397;-77
2022/12/09 03:04:22;;;;;;;16.08;10.85;;;-2.20;99.90;;;-3.78;100.00;96211.34;5109954;28;20432;-78
2022/12/09 03:06:51;;;;;;;15.02;10.45;;;-2.20;99.90;;;-3.85;100.00;96207.94;5110759;28;20392;-77
2022/12/09 03:09:22;;;;;;;14.63;10.07;;;-2.20;99.90;;;-3.87;100.00;96211.69;5110630;28;20432;-78
2022/12/09 03:11:49;;;;;;;18.25;11.60;;;-2.30;99.90;;;-3.79;100.00;96208.97;5110336;28;20397;-77
2022/12/09 03:14:19;;;;;;;18.52;11.63;;;-2.20;99.90;;;-3.83;100.00;96202.59;5109805;28;20753;-77
2022/12/09 03:16:51;;;;;;;16.20;10.85;;;-2.20;99.90;;;-3.83;100.00;96197.41;5110209;28;20399;-77
2022/12/09 03:19:24;;;;;;;14.20;10.77;;;-2.20;99.90;;;-3.82;100.00;96201.56;5110605;28;20553;-78
2022/12/09 03:21:55;;;;;;;20.92;12.77;;;-2.20;99.90;;;-3.76;100.00;96198.25;5110708;28;20410;-78
2022/12/09 03:24:28;;;;;;;14.00;10.25;;;-2.20;99.90;;;-3.78;100.00;96197.63;5109794;28;20399;-78
2022/12/09 03:26:55;;;;;;;16.55;12.00;;;-2.20;99.90;;;-3.81;100.00;96187.66;5109068;28;20905;-78
2022/12/09 03:29:25;;;;;;;19.20;13.02;;;-2.20;99.90;;;-3.78;100.00;96193.25;5110402;28;20491;-78
2022/12/09 03:31:54;;;;;;;17.13;12.05;;;-2.20;99.90;;;-3.82;100.00;96189.44;5110709;28;20857;-77
2022/12/09 03:34:28;;;;;;;22.23;13.75;;;-2.20;99.90;;;-3.80;100.00;96184.88;5109779;28;20396;-77
2022/12/09 03:36:57;;;;;;;18.70;12.95;;;-2.20;99.90;;;-3.81;100.00;96187.66;5110281;28;20388;-77
2022/12/09 03:39:28;;;;;;;21.77;14.20;;;-2.20;99.90;;;-3.80;100.00;96192.66;5110045;28;20412;-78
2022/12/09 03:41:58;;;;;;;21.88;14.48;;;-2.20;99.90;;;-3.81;100.00;96188.47;5110024;28;20400;-77
2022/12/09 03:44:31;;;;;;;21.02;14.30;;;-2.20;99.90;;;-3.81;100.00;96180.69;5109377;28;20453;-77
2022/12/09 03:46:57;;;;;;;22.38;14.50;;;-2.20;99.90;;;-3.80;100.00;96173.75;5125970;28;20424;-77
2022/12/09 03:49:24;;;;;;;23.40;14.88;;;-2.20;99.90;;;-3.77;100.00;96171.59;5110349;28;20420;-77
2022/12/09 03:51:55;;;;;;;22.42;15.13;;;-2.10;99.90;;;-3.76;100.00;96164.63;5108786;28;20403;-77
2022/12/09 03:54:26;;;;;;;20.52;14.13;;;-2.20;99.90;;;-3.77;100.00;96179.34;5108254;28;20549;-77
2022/12/09 03:56:55;;;;;;;21.95;14.70;;;-2.20;99.90;;;-3.78;100.00;96180.34;5110161;28;20396;-77
2022/12/09 03:59:23;;;;;;;20.83;14.05;;;-2.20;99.90;;;-3.78;100.00;96180.34;5110043;28;20404;-78
2022/12/09 04:01:50;;;;;;;23.35;16.17;;;-2.10;99.90;;;-3.76;100.00;96183.50;5110099;28;20393;-77
2022/12/09 04:04:16;;;;;;;21.63;14.48;;;-2.10;99.90;;;-3.76;100.00;96180.16;5109251;28;20392;-77
2022/12/09 04:06:43;;;;;;;23.23;15.50;;;-2.10;99.90;;;-3.73;100.00;96180.56;5109981;28;20449;-77
2022/12/09 04:09:11;;;;;;;24.13;16.30;;;-2.10;99.90;;;-3.75;100.00;96176.56;5110202;28;20449;-78
2022/12/09 04:11:36;;;;;;;21.65;14.68;;;-2.10;99.90;;;-3.75;100.00;96177.34;5117659;28;20412;-77
2022/12/09 04:14:03;;;;;;;22.58;15.07;;;-2.10;99.90;;;-3.74;100.00;96167.81;5109563;28;20406;-77
2022/12/09 04:16:29;;;;;;;21.52;15.85;;;-2.10;99.90;;;-3.73;100.00;96166.81;5109850;28;20403;-77
2022/12/09 04:18:55;;;;;;;22.20;14.80;;;-2.10;99.90;;;-3.73;100.00;96170.22;5109922;28;20401;-78
2022/12/09 04:21:21;;;;;;;24.98;15.48;;;-2.10;99.90;;;-3.70;100.00;96167.25;5110040;28;20807;-79
2022/12/09 04:23:48;;;;;;;22.23;14.93;;;-2.10;99.90;;;-3.69;100.00;96160.28;5109222;28;20404;-76
2022/12/09 04:26:18;;;;;;;23.42;14.98;;;-2.10;99.90;;;-3.72;100.00;96164.06;5110164;28;20407;-76
2022/12/09 04:28:45;;;;;;;19.73;14.23;;;-2.10;99.90;;;-3.74;100.00;96158.25;5108872;28;20566;-76
2022/12/09 04:31:12;;;;;;;20.58;14.25;;;-2.10;99.90;;;-3.70;100.00;96150.94;5109798;28;20399;-77
2022/12/09 04:33:38;;;;;;;21.63;15.30;;;-2.10;99.90;;;-3.69;100.00;96149.94;5109199;28;20384;-77
2022/12/09 04:36:06;;;;;;;24.50;15.03;;;-2.10;99.90;;;-3.66;100.00;96142.59;5109644;28;20431;-77
2022/12/09 04:38:32;;;;;;;20.63;14.07;;;-2.10;99.90;;;-3.62;100.00;96132.69;5114929;28;20405;-76
2022/12/09 04:41:00;;;;;;;19.08;13.57;;;-2.00;99.90;;;-3.66;100.00;96131.44;5113005;28;20463;-79
2022/12/09 04:43:26;;;;;;;20.67;12.90;;;-2.10;99.90;;;-3.69;100.00;96126.69;5112570;28;20503;-78
2022/12/09 04:45:52;;;;;;;19.83;13.93;;;-2.10;99.90;;;-3.68;100.00;96126.47;5113223;28;20408;-78
2022/12/09 04:48:18;;;;;;;18.83;13.15;;;-2.10;99.90;;;-3.66;100.00;96127.06;5125747;22;20510;-78
2022/12/09 04:50:44;;;;;;;21.13;13.75;;;-2.10;99.90;;;-3.65;100.00;96114.94;5108221;28;20461;-76
2022/12/09 04:53:10;;;;;;;19.73;13.10;;;-2.00;99.90;;;-3.60;100.00;96123.72;5110742;28;20430;-77
2022/12/09 04:55:37;;;;;;;22.47;12.97;;;-2.00;99.90;;;-3.65;100.00;96118.34;5111807;28;20446;-78
2022/12/09 04:58:07;;;;;;;20.73;13.30;;;-2.10;99.90;;;-3.67;100.00;96112.56;5100839;28;20413;-78
2022/12/09 05:00:33;;;;;;;17.55;12.60;;;-2.10;99.90;;;-3.64;100.00;96106.19;5089776;28;20512;-78
2022/12/09 05:02:59;;;;;;;22.88;14.52;;;-2.10;99.90;;;-3.59;100.00;96103.81;5091230;28;20517;-78
2022/12/09 05:05:25;;;;;;;18.95;12.50;;;-2.00;99.90;;;-3.62;100.00;96104.22;5091561;28;20402;-77
2022/12/09 05:07:51;;;;;;;19.15;13.50;;;-2.00;99.90;;;-3.62;100.00;96094.69;5091824;28;20409;-79
2022/12/09 05:10:17;;;;;;;18.15;12.65;;;-2.00;99.90;;;-3.60;100.00;96090.09;5091782;28;20817;-78
2022/12/09 05:12:43;;;;;;;18.23;12.37;;;-2.00;99.90;;;-3.59;100.00;96093.47;5091398;28;20430;-78
2022/12/09 05:15:10;;;;;;;17.27;11.90;;;-2.00;99.90;;;-3.58;100.00;96090.72;5090971;28;20873;-78
2022/12/09 05:17:36;;;;;;;20.27;12.70;;;-2.00;99.90;;;-3.53;100.00;96092.69;5092532;28;20406;-76
2022/12/09 05:20:04;;;;;;;18.65;13.18;;;-2.00;99.90;;;-3.53;100.00;96097.88;5092261;28;20772;-77
2022/12/09 05:22:29;;;;;;;16.42;11.60;;;-1.90;99.90;;;-3.55;100.00;96105.03;5090678;28;20402;-72
2022/12/09 05:24:55;;;;;;;17.00;11.87;;;-1.90;99.90;;;-3.54;100.00;96099.69;5086015;28;20410;-78
2022/12/09 05:27:21;;;;;;;18.60;12.70;;;-2.00;99.90;;;-3.49;100.00;96093.91;5091276;28;20401;-78
2022/12/09 05:29:47;;;;;;;16.77;11.93;;;-1.90;99.90;;;-3.47;100.00;96096.31;5090049;28;20756;-79
2022/12/09 05:32:14;;;;;;;18.80;12.63;;;-1.90;99.90;;;-3.47;100.00;96089.34;5091412;28;20402;-80
2022/12/09 05:34:40;;;;;;;21.48;13.27;;;-1.90;99.90;;;-3.39;100.00;96085.78;5085814;28;20416;-78
2022/12/09 05:37:06;;;;;;;19.63;13.45;;;-1.80;99.90;;;-3.33;100.00;96077.25;5088258;28;20414;-80
2022/12/09 05:39:32;;;;;;;18.00;12.50;;;-1.80;99.90;;;-3.33;100.00;96085.00;5090873;28;20895;-80
2022/12/09 05:41:58;;;;;;;20.80;12.95;;;-1.70;99.90;;;-3.30;100.00;96077.63;5091521;28;20489;-80
2022/12/09 05:44:24;;;;;;;20.15;13.13;;;-1.70;99.90;;;-3.28;100.00;96074.84;5090909;28;20398;-80
2022/12/09 05:46:50;;;;;;;19.73;12.52;;;-1.70;99.90;;;-3.30;100.00;96067.28;5091838;28;20390;-80
2022/12/09 05:49:17;;;;;;;17.93;12.23;;;-1.70;99.90;;;-3.29;100.00;96068.88;5091832;28;20430;-78
2022/12/09 05:51:43;;;;;;;19.90;13.70;;;-1.70;99.90;;;-3.30;100.00;96075.03;5090232;28;20421;-78
2022/12/09 05:54:09;;;;;;;18.98;12.88;;;-1.70;99.90;;;-3.32;100.00;96063.31;5090813;28;20883;-77
2022/12/09 05:56:35;;;;;;;21.10;12.77;;;-1.70;99.90;;;-3.34;100.00;96068.69;5091626;28;20395;-77
2022/12/09 05:59:01;;;;;;;18.75;12.85;;;-1.80;99.90;;;-3.33;100.00;96069.47;5091354;28;20948;-78
2022/12/09 06:01:27;;;;;;;22.33;15.00;;;-1.70;99.90;;;-3.30;100.00;96067.28;5091208;28;20405;-79
2022/12/09 06:03:54;;;;;;;20.92;13.82;;;-1.70;99.90;;;-3.33;100.00;96067.69;5072538;28;20397;-79
2022/12/09 06:06:25;;;;;;;22.10;13.95;;;-1.70;99.90;;;-3.34;100.00;96071.28;5090111;28;20402;-78
2022/12/09 06:08:55;;;;;;;24.33;15.33;;;-1.80;99.90;;;-3.28;100.00;96059.34;5089470;28;21165;-78
2022/12/09 06:11:21;;;;;;;20.90;13.20;;;-1.70;99.90;;;-3.30;100.00;96059.53;5088662;28;20397;-78
2022/12/09 06:13:48;;;;;;;24.10;15.25;;;-1.70;99.90;;;-3.29;100.00;96058.53;5090109;28;20463;-78
2022/12/09 06:16:17;;;;;;;22.10;14.50;;;-1.70;99.90;;;-3.28;100.00;96046.41;5090975;28;20455;-78
2022/12/09 06:18:44;;;;;;;20.60;13.80;;;-1.70;99.90;;;-3.28;100.00;96038.63;5090802;28;20889;-78
2022/12/09 06:21:12;;;;;;;23.05;14.82;;;-1.70;99.90;;;-3.25;100.00;96046.00;5090920;28;20438;-78
2022/12/09 06:23:41;;;;;;;20.40;13.95;;;-1.70;99.90;;;-3.24;100.00;96045.81;5089888;28;20802;-79
2022/12/09 06:26:13;;;;;;;23.17;15.38;;;-1.70;99.90;;;-3.21;100.00;96050.59;5090732;28;20413;-79
2022/12/09 06:28:39;;;;;;;24.40;15.57;;;-1.70;99.90;;;-3.21;100.00;96050.59;5088378;28;20410;-78
2022/12/09 06:31:05;;;;;;;22.08;14.20;;;-1.60;99.90;;;-3.21;100.00;96048.00;5090456;28;20433;-78
2022/12/09 06:33:31;;;;;;;24.52;15.60;;;-1.70;99.90;;;-3.18;100.00;96039.84;5089648;28;20414;-78
2022/12/09 06:36:00;;;;;;;22.35;15.00;;;-1.60;99.90;;;-3.20;100.00;96039.25;5090580;28;20434;-78
2022/12/09 06:38:26;;;;;;;24.33;15.93;;;-1.60;99.90;;;-3.17;100.00;96045.81;5090469;28;20806;-78
2022/12/09 06:40:54;;;;;;;25.75;15.98;;;-1.60;99.90;;;-3.12;100.00;96043.44;5090276;28;20428;-78
2022/12/09 06:43:20;;;;;;;29.23;16.23;;;-1.60;99.90;;;-3.15;100.00;96046.41;5088393;28;20890;-78
2022/12/09 06:45:46;;;;;;;25.63;16.23;;;-1.60;99.90;;;-3.15;100.00;96044.63;5090329;28;20401;-77
2022/12/09 06:48:11;;;;;;;22.45;15.10;;;-1.60;99.90;;;-3.12;100.00;96046.03;5085961;28;20404;-78
2022/12/09 06:50:38;;;;;;;25.23;16.63;;;-1.60;99.90;;;-3.09;100.00;96045.63;5090749;28;20749;-78
2022/12/09 06:53:04;;;;;;;22.38;14.85;;;-1.60;99.90;;;-3.10;100.00;96046.63;5089147;28;20823;-78
2022/12/09 06:55:30;;;;;;;26.15;16.30;;;-1.60;99.90;;;-3.06;100.00;96053.00;5090183;28;20433;-76
2022/12/09 06:57:58;;;;;;;27.73;17.63;;;-1.50;99.90;;;-3.05;100.00;96053.78;5090119;28;20394;-77
2022/12/09 07:00:25;;;;;;;23.95;16.20;;;-1.50;99.90;;;-3.04;100.00;96045.81;5089860;28;20406;-77
2022/12/09 07:02:51;;;;;;;28.60;17.77;;;-1.50;99.90;;;-3.01;100.00;96055.78;5087948;28;20421;-77
2022/12/09 07:05:18;;;;;;;26.30;16.85;;;-1.50;99.90;;;-3.00;100.00;96046.22;5090141;28;21028;-76
2022/12/09 07:07:48;;;;;;;26.50;17.40;;;-1.50;99.90;;;-2.98;100.00;96044.22;5089966;28;20416;-79
2022/12/09 07:10:14;;;;;;;27.85;17.15;;;-1.50;99.90;;;-2.92;100.00;96043.41;5090198;28;20497;-79
2022/12/09 07:12:40;;;;;;;27.52;17.52;;;-1.40;99.90;;;-2.90;100.00;96034.47;5089245;28;20831;-77
2022/12/09 07:15:09;;;;;;;26.38;17.17;;;-1.40;99.90;;;-2.88;100.00;96045.44;5080580;28;20442;-77
2022/12/09 07:17:35;;;;;;;27.77;18.00;;;-1.40;99.90;;;-2.85;100.00;96033.84;5090226;28;20427;-79
2022/12/09 07:20:01;;;;;;;25.65;17.00;;;-1.30;99.90;;;-2.82;100.00;96029.09;5089085;28;20509;-79
2022/12/09 07:22:27;;;;;;;28.75;18.08;;;-1.30;99.90;;;-2.75;100.00;96042.84;5089011;28;20401;-77
2022/12/09 07:24:53;;;;;;;27.98;17.92;;;-1.20;99.90;;;-2.70;100.00;96036.25;5087609;28;20399;-73
2022/12/09 07:27:19;;;;;;;27.10;16.98;;;-1.20;99.90;;;-2.65;100.00;96034.66;5083217;28;20406;-73
2022/12/09 07:29:45;;;;;;;26.73;17.20;;;-1.20;99.90;;;-2.61;100.00;96027.28;5087654;28;20409;-78
2022/12/09 07:32:12;;;;;;;30.45;19.25;;;-1.10;99.90;;;-2.56;100.00;96033.47;5087624;28;20915;-79
2022/12/09 07:34:38;;;;;;;24.48;16.80;;;-1.10;99.90;;;-2.52;100.00;96039.81;5088741;28;20402;-79
2022/12/09 07:37:04;;;;;;;26.88;17.83;;;-1.10;99.90;;;-2.47;100.00;96037.41;5089441;28;20408;-76
2022/12/09 07:39:30;;;;;;;25.83;17.02;;;-1.00;99.90;;;-2.42;100.00;96040.19;5088197;28;20406;-76
2022/12/09 07:41:56;;;;;;;25.15;17.35;;;-0.90;99.90;;;-2.37;100.00;96034.41;5089950;28;20433;-78
2022/12/09 07:44:24;;;;;;;26.20;17.05;;;-0.90;99.90;;;-2.31;100.00;96035.38;5070560;28;20480;-76
2022/12/09 07:46:50;;;;;;;29.42;18.15;;;-0.90;99.90;;;-2.28;100.00;96037.56;5071384;28;20771;-77
2022/12/09 07:49:17;;;;;;;27.13;18.80;;;-0.80;99.90;;;-2.24;100.00;96030.97;5089751;28;20402;-78
2022/12/09 07:51:44;;;;;;;23.17;16.52;;;-0.80;99.90;;;-2.18;100.00;96037.94;5089474;28;20699;-75
2022/12/09 07:54:11;;;;;;;25.00;16.93;;;-0.70;99.90;;;-2.13;100.00;96036.34;5070534;28;20451;-79
2022/12/09 07:56:37;;;;;;;27.97;18.33;;;-0.70;99.90;;;-2.08;100.00;96031.31;5089750;28;20394;-78
2022/12/09 07:59:06;;;;;;;28.10;17.67;;;-0.60;99.90;;;-2.05;100.00;96030.91;5089414;28;20775;-79
2022/12/09 08:01:34;;;;;;;27.98;17.85;;;-0.60;99.90;;;-2.02;100.00;96027.09;5089317;28;20417;-77
2022/12/09 08:04:00;;;;;;;26.50;17.48;;;-0.60;99.90;;;-1.95;100.00;96026.06;5088414;28;20405;-76
2022/12/09 08:06:29;;;;;;;27.27;17.70;;;-0.50;99.90;;;-1.87;100.00;96027.63;5089474;28;20892;-76
2022/12/09 08:08:57;;;;;;;26.67;18.45;;;-0.50;99.90;;;-1.78;100.00;96028.19;5089475;28;20398;-76
2022/12/09 08:11:26;;;;;;;26.10;18.15;;;-0.30;99.90;;;-1.69;100.00;96026.97;5088865;28;20459;-76
2022/12/09 08:13:55;;;;;;;29.23;18.77;;;-0.30;99.90;;;-1.60;100.00;96023.94;5088738;28;20398;-76
2022/12/09 08:16:22;;;;;;;26.50;18.67;;;-0.20;99.90;;;-1.52;100.00;96022.09;5093276;28;20404;-77
2022/12/09 08:18:49;;;;;;;27.50;18.88;;;-0.10;99.90;;;-1.44;100.00;96025.25;5093207;28;20437;-76
2022/12/09 08:21:18;;;;;;;28.90;18.70;;;0.00;99.90;;;-1.35;100.00;96020.56;5091553;28;20761;-76
2022/12/09 08:23:46;;;;;;;27.23;18.52;;;0.10;99.90;;;-1.28;100.00;96009.13;5092341;28;20405;-76
2022/12/09 08:26:15;;;;;;;26.15;17.83;;;0.10;99.90;;;-1.19;100.00;96018.25;5093199;28;20771;-77
2022/12/09 08:28:41;;;;;;;27.35;18.25;;;0.20;99.90;;;-1.12;100.00;96018.22;5092908;28;20903;-78
2022/12/09 08:31:09;;;;;;;29.48;19.73;;;0.30;99.90;;;-1.07;100.00;96018.41;5092910;28;20480;-76
2022/12/09 08:33:35;;;;;;;27.60;19.15;;;0.30;99.90;;;-1.01;100.00;96016.75;5092057;28;20401;-75
2022/12/09 08:36:03;;;;;;;27.02;18.33;;;0.40;99.90;;;-0.97;100.00;96015.31;5092936;28;20988;-74
2022/12/09 08:38:30;;;;;;;26.40;18.10;;;0.40;99.90;;;-0.93;100.00;96006.91;5092813;28;20480;-78
2022/12/09 08:40:57;;;;;;;27.43;18.10;;;0.50;99.90;;;-0.88;100.00;96014.03;5092749;28;21008;-78
2022/12/09 08:43:23;;;;;;;28.23;18.63;;;0.50;99.90;;;-0.83;100.00;96011.63;5092267;28;20397;-80
2022/12/09 08:45:49;;;;;;;25.67;17.38;;;0.60;99.90;;;-0.77;100.00;96008.16;5092983;28;20610;-84
2022/12/09 08:48:15;;;;;;;26.65;18.27;;;0.60;99.90;;;-0.73;100.00;96009.31;5092631;28;20408;-78
2022/12/09 08:50:41;;;;;;;25.98;16.90;;;0.70;99.90;;;-0.69;100.00;96009.69;5092646;28;20398;-81
2022/12/09 08:53:07;;;;;;;25.73;17.05;;;0.70;99.90;;;-0.69;100.00;96005.28;5091833;28;20402;-74
2022/12/09 08:55:33;;;;;;;22.60;16.25;;;0.70;99.90;;;-0.68;100.00;96001.69;5093050;28;20424;-75
2022/12/09 08:58:01;;;;;;;24.10;17.05;;;0.70;99.90;;;-0.69;100.00;95997.50;5092361;28;20425;-76
2022/12/09 09:00:26;;;;;;;27.73;18.23;;;0.70;99.90;;;-0.70;100.00;95993.31;5092144;28;20418;-79
2022/12/09 09:02:52;;;;;;;27.17;18.40;;;0.70;99.90;;;-0.72;100.00;95997.13;5090093;28;20414;-77
2022/12/09 09:05:18;;;;;;;26.55;18.25;;;0.70;99.90;;;-0.75;100.00;96006.13;5092400;28;20430;-76
2022/12/09 09:07:44;;;;;;;28.92;19.42;;;0.60;99.90;;;-0.76;100.00;96004.56;5092005;28;20450;-79
2022/12/09 09:10:11;;;;;;;27.27;18.93;;;0.60;99.90;;;-0.77;100.00;95997.78;5091926;28;20493;-76
2022/12/09 09:12:37;;;;;;;28.25;19.30;;;0.60;99.90;;;-0.78;100.00;95990.97;5092097;28;20406;-74
2022/12/09 09:15:05;;;;;;;29.58;19.63;;;0.60;99.90;;;-0.78;100.00;95988.38;5091429;28;20479;-74
2022/12/09 09:17:31;;;;;;;30.98;20.30;;;0.60;99.90;;;-0.78;100.00;95990.97;5091979;28;20458;-75
2022/12/09 09:19:57;;;;;;;32.20;21.15;;;0.60;99.90;;;-0.79;100.00;95992.78;5092098;28;20512;-76
2022/12/09 09:22:23;;;;;;;27.95;18.98;;;0.60;99.90;;;-0.76;100.00;95988.97;5091508;28;20416;-76
2022/12/09 09:24:51;;;;;;;28.30;19.03;;;0.60;99.90;;;-0.74;100.00;95999.13;5091345;28;20420;-82
2022/12/09 09:27:16;;;;;;;28.08;18.67;;;0.60;99.90;;;-0.71;100.00;96003.91;5092002;28;20866;-76
2022/12/09 09:29:42;;;;;;;28.33;18.60;;;0.60;99.90;;;-0.69;100.00;96001.91;5089823;28;20463;-82
2022/12/09 09:32:10;;;;;;;27.77;19.17;;;0.70;99.90;;;-0.68;100.00;96003.50;5091724;28;20404;-77
2022/12/09 09:34:35;;;;;;;27.17;18.75;;;0.70;99.90;;;-0.66;100.00;95993.66;5090726;28;20455;-80
2022/12/09 09:37:02;;;;;;;32.00;20.52;;;0.70;99.90;;;-0.66;100.00;95991.06;5091454;28;20409;-79
2022/12/09 09:39:27;;;;;;;31.73;19.52;;;0.70;99.90;;;-0.66;100.00;95986.66;5091532;28;20406;-77
2022/12/09 09:41:56;;;;;;;28.10;19.15;;;0.70;99.90;;;-0.64;100.00;95986.44;5092078;28;20485;-78
2022/12/09 09:44:27;;;;;;;34.97;22.55;;;0.70;99.90;;;-0.68;100.00;95988.69;5090750;28;20489;-78
2022/12/09 09:46:55;;;;;;;36.20;22.27;;;0.70;99.90;;;-0.69;100.00;95984.50;5091508;28;20443;-77
2022/12/09 09:49:35;;;;;;;34.85;22.33;;;0.70;99.90;;;-0.67;100.00;95977.28;5085559;28;20418;-81
2022/12/09 09:52:07;;;;;;;37.33;23.90;;;0.70;99.90;;;-0.65;100.00;95979.66;5090887;28;20398;-77
2022/12/09 09:54:33;;;;;;;38.50;23.00;;;0.70;99.90;;;-0.62;100.00;95974.84;5088555;28;20466;-77
2022/12/09 09:57:06;;;;;;;39.78;24.50;;;0.70;99.90;;;-0.63;100.00;95969.84;5091517;28;20471;-77
2022/12/09 09:59:44;;;;;;;35.10;22.43;;;0.70;99.90;;;-0.60;100.00;95972.03;5073286;28;20489;-77
2022/12/09 10:02:24;;;;;;;41.10;24.98;;;0.70;99.90;;;-0.64;100.00;95971.66;5090905;28;20410;-75
2022/12/09 10:05:04;;;;;;;39.50;24.63;;;0.70;99.90;;;-0.62;100.00;95972.25;5090589;28;20404;-78